Time;durP1;ratioP1;P1;durP2;ratioP2;P2;SDS_P1;SDS_P2;PMS_P1;PMS_P2;Temp;Humidity;BMP_temperature;BMP_pressure;BME280_temperature;BME280_humidity;BME280_pressure;Samples;Min_cycle;Max_cycle;Signal;HPM_P1;HPM_P2
2023/09/13 00:01:49;;;;;;;0.00;0.00;;;;;;;29.17;54.32;101317.47;5073539;28;20021;-67
2023/09/13 00:04:14;;;;;;;0.00;0.00;;;;;;;29.19;53.40;101314.34;5072890;28;20041;-69
2023/09/13 00:06:39;;;;;;;0.00;0.00;;;;;;;29.12;54.52;101301.03;5072972;28;20037;-69
2023/09/13 00:09:06;;;;;;;0.00;0.00;;;;;;;29.06;54.61;101305.16;5072587;28;20040;-68
2023/09/13 00:11:32;;;;;;;0.00;0.00;;;;;;;28.91;54.99;101297.47;5072899;28;20032;-68
2023/09/13 00:13:58;;;;;;;0.00;0.00;;;;;;;29.12;54.51;101305.75;5073405;28;20082;-69
2023/09/13 00:16:23;;;;;;;0.00;0.00;;;;;;;28.84;55.50;101311.00;5085584;28;20036;-68
2023/09/13 00:18:49;;;;;;;0.00;0.00;;;;;;;28.64;56.36;101309.84;5093122;28;20043;-68
2023/09/13 00:21:14;;;;;;;0.00;0.00;;;;;;;28.73;55.48;101307.03;5093039;28;20111;-69
2023/09/13 00:23:39;;;;;;;0.00;0.00;;;;;;;28.56;56.05;101299.63;5078522;28;20028;-68
2023/09/13 00:26:05;;;;;;;0.00;0.00;;;;;;;28.69;56.14;101306.09;5073183;28;20082;-68
2023/09/13 00:28:30;;;;;;;0.00;0.00;;;;;;;28.33;56.68;101300.22;5072364;28;20032;-69
2023/09/13 00:30:57;;;;;;;0.00;0.00;;;;;;;28.88;55.52;101300.91;5072303;28;20090;-68
2023/09/13 00:33:23;;;;;;;0.00;0.00;;;;;;;28.86;55.31;101302.38;5072225;28;20032;-68
2023/09/13 00:35:49;;;;;;;0.00;0.00;;;;;;;29.02;55.11;101308.94;5072102;28;20028;-68
2023/09/13 00:38:15;;;;;;;0.00;0.00;;;;;;;28.96;55.14;101321.34;5072607;28;20472;-68
2023/09/13 00:40:40;;;;;;;0.00;0.00;;;;;;;29.06;54.76;101312.66;5054521;28;20043;-68
2023/09/13 00:43:06;;;;;;;0.00;0.00;;;;;;;29.00;55.14;101314.00;5072459;28;20032;-68
2023/09/13 00:45:33;;;;;;;0.00;0.00;;;;;;;29.13;54.53;101304.63;5072324;28;20090;-69
2023/09/13 00:47:59;;;;;;;0.00;0.00;;;;;;;28.92;55.30;101304.63;5072451;28;20024;-69
2023/09/13 00:50:26;;;;;;;0.00;0.00;;;;;;;29.05;55.08;101311.84;5072359;28;20074;-67
2023/09/13 00:52:52;;;;;;;0.00;0.00;;;;;;;29.04;54.91;101313.00;5072701;28;20025;-68
2023/09/13 00:55:20;;;;;;;0.00;0.00;;;;;;;29.06;55.16;101309.88;5072197;28;20075;-68
2023/09/13 00:57:47;;;;;;;0.00;0.00;;;;;;;28.93;55.41;101310.97;5071925;28;20064;-68
2023/09/13 01:00:13;;;;;;;0.00;0.00;;;;;;;28.95;56.04;101315.03;5054034;28;20562;-69
2023/09/13 01:02:40;;;;;;;0.00;0.00;;;;;;;29.01;54.80;101310.09;5072067;28;20033;-67
2023/09/13 01:05:07;;;;;;;0.00;0.00;;;;;;;29.26;54.36;101317.41;5071823;28;20029;-69
2023/09/13 01:07:34;;;;;;;0.00;0.00;;;;;;;29.08;54.56;101324.19;5071726;28;20032;-68
2023/09/13 01:09:59;;;;;;;0.00;0.00;;;;;;;29.07;55.48;101312.31;5071600;28;20097;-69
2023/09/13 01:12:25;;;;;;;0.00;0.00;;;;;;;28.87;55.09;101309.53;5082660;28;20036;-69
2023/09/13 01:14:50;;;;;;;0.00;0.00;;;;;;;28.73;56.08;101318.09;5091133;28;20024;-68
2023/09/13 01:17:37;;;;;;;0.00;0.00;;;;;;;28.96;54.81;101315.81;5072059;28;20392;-68
2023/09/13 01:20:16;;;;;;;0.00;0.00;;;;;;;28.98;54.89;101319.06;5054007;28;20048;-68
2023/09/13 01:22:41;;;;;;;0.00;0.00;;;;;;;28.59;55.56;101312.00;5071767;28;20048;-68
2023/09/13 01:25:15;;;;;;;0.00;0.00;;;;;;;28.79;55.45;101318.72;5071568;28;20111;-69
2023/09/13 01:27:48;;;;;;;0.00;0.00;;;;;;;28.67;55.65;101318.63;5071601;28;20033;-69
2023/09/13 01:30:16;;;;;;;0.00;0.00;;;;;;;28.52;56.19;101314.47;5071361;28;20037;-69
2023/09/13 01:32:46;;;;;;;0.00;0.00;;;;;;;28.49;56.41;101310.41;5071181;28;20474;-69
2023/09/13 01:35:12;;;;;;;0.00;0.00;;;;;;;28.48;56.11;101308.75;5071808;28;20037;-69
2023/09/13 01:37:38;;;;;;;0.00;0.00;;;;;;;28.65;55.55;101313.44;5071364;28;20044;-68
2023/09/13 01:40:06;;;;;;;0.00;0.00;;;;;;;28.68;55.86;101312.75;5071116;28;20036;-67
2023/09/13 01:42:32;;;;;;;0.00;0.00;;;;;;;28.23;57.47;101308.88;5071247;28;20039;-68
2023/09/13 01:44:59;;;;;;;0.00;0.00;;;;;;;28.33;57.04;101301.03;5072851;28;20044;-67
2023/09/13 01:47:27;;;;;;;0.00;0.00;;;;;;;28.58;55.83;101310.38;5091413;28;20024;-68
2023/09/13 01:49:53;;;;;;;0.00;0.00;;;;;;;28.76;55.14;101300.00;5091756;28;20028;-68
2023/09/13 01:52:18;;;;;;;0.00;0.00;;;;;;;28.64;55.79;101309.03;5091377;28;20441;-68
2023/09/13 01:54:44;;;;;;;0.00;0.00;;;;;;;28.84;55.03;101313.78;5091049;28;20040;-68
2023/09/13 01:57:09;;;;;;;0.00;0.00;;;;;;;28.83;55.35;101323.25;5089292;28;20408;-68
2023/09/13 01:59:35;;;;;;;0.00;0.00;;;;;;;28.84;55.84;101312.97;5070986;28;20031;-68
2023/09/13 02:02:00;;;;;;;0.00;0.00;;;;;;;28.87;55.59;101304.81;5071161;28;20063;-68
2023/09/13 02:04:31;;;;;;;0.00;0.00;;;;;;;28.64;55.83;101311.78;5070904;28;20115;-67
2023/09/13 02:06:57;;;;;;;0.00;0.00;;;;;;;28.79;55.42;101319.53;5070699;28;20051;-69
2023/09/13 02:09:22;;;;;;;0.00;0.00;;;;;;;28.97;55.48;101311.91;5087286;28;20043;-67
2023/09/13 02:11:48;;;;;;;0.00;0.00;;;;;;;28.81;54.94;101317.25;5091001;28;20080;-68
2023/09/13 02:14:13;;;;;;;0.00;0.00;;;;;;;28.87;54.85;101315.06;5091398;28;20500;-68
2023/09/13 02:16:38;;;;;;;0.00;0.00;;;;;;;28.88;55.01;101319.44;5086969;28;20039;-68
2023/09/13 02:19:04;;;;;;;0.00;0.00;;;;;;;28.89;55.37;101318.31;5069950;28;20032;-68
2023/09/13 02:21:30;;;;;;;0.00;0.00;;;;;;;28.99;55.14;101315.16;5052173;28;20032;-68
2023/09/13 02:23:55;;;;;;;0.00;0.00;;;;;;;28.71;56.42;101325.09;5070539;28;20434;-68
2023/09/13 02:26:22;;;;;;;0.00;0.00;;;;;;;28.89;55.64;101323.84;5052420;28;20029;-67
2023/09/13 02:28:48;;;;;;;0.00;0.00;;;;;;;28.93;55.74;101320.09;5070510;28;20072;-68
2023/09/13 02:31:26;;;;;;;0.00;0.00;;;;;;;28.98;56.43;101324.59;5070349;28;20435;-68
2023/09/13 02:33:53;;;;;;;0.00;0.00;;;;;;;29.01;55.54;101324.72;5070137;28;20093;-68
2023/09/13 02:36:18;;;;;;;0.00;0.00;;;;;;;28.88;56.65;101320.28;5070385;28;20555;-68
2023/09/13 02:38:44;;;;;;;0.00;0.00;;;;;;;28.88;56.68;101320.28;5070309;28;20052;-69
2023/09/13 02:41:09;;;;;;;0.00;0.00;;;;;;;28.97;56.13;101317.44;5070730;28;20097;-68
2023/09/13 02:43:35;;;;;;;0.00;0.00;;;;;;;28.90;55.92;101319.94;5069989;28;20396;-69
2023/09/13 02:46:01;;;;;;;0.00;0.00;;;;;;;28.86;55.01;101324.50;5052107;28;20020;-68
2023/09/13 02:48:26;;;;;;;0.00;0.00;;;;;;;28.88;55.56;101323.03;5070329;28;20040;-68
2023/09/13 02:50:52;;;;;;;0.00;0.00;;;;;;;29.08;55.56;101327.78;5069996;28;20508;-70
2023/09/13 02:53:17;;;;;;;0.00;0.00;;;;;;;29.02;55.24;101325.53;5070509;28;20051;-68
2023/09/13 02:55:42;;;;;;;0.00;0.00;;;;;;;29.02;55.32;101331.06;5069841;28;20055;-69
2023/09/13 02:58:08;;;;;;;0.00;0.00;;;;;;;29.08;54.97;101327.78;5070059;28;20071;-68
2023/09/13 03:00:34;;;;;;;0.00;0.00;;;;;;;28.98;55.38;101327.34;5070109;28;20108;-69
2023/09/13 03:02:59;;;;;;;0.00;0.00;;;;;;;28.96;55.60;101324.94;5070040;28;20112;-68
2023/09/13 03:05:25;;;;;;;0.00;0.00;;;;;;;28.95;55.74;101328.03;5085096;28;20521;-67
2023/09/13 03:07:51;;;;;;;0.00;0.00;;;;;;;28.76;56.77;101325.72;5090527;28;20051;-69
2023/09/13 03:10:16;;;;;;;0.00;0.00;;;;;;;28.92;55.53;101325.94;5090013;28;20028;-68
2023/09/13 03:12:42;;;;;;;0.00;0.00;;;;;;;28.42;57.62;101329.44;5087984;28;20058;-68
2023/09/13 03:15:07;;;;;;;0.00;0.00;;;;;;;28.72;56.87;101326.75;5069578;28;20033;-68
2023/09/13 03:17:33;;;;;;;0.00;0.00;;;;;;;28.41;57.53;101333.38;5069638;28;20472;-68
2023/09/13 03:19:58;;;;;;;0.00;0.00;;;;;;;28.19;58.56;101328.09;5070200;28;20029;-68
2023/09/13 03:22:24;;;;;;;0.00;0.00;;;;;;;28.65;57.13;101324.50;5069839;28;20125;-68
2023/09/13 03:24:50;;;;;;;0.00;0.00;;;;;;;28.62;57.12;101320.44;5069745;28;20028;-68
2023/09/13 03:27:15;;;;;;;0.00;0.00;;;;;;;28.57;57.04;101317.88;5069688;28;20021;-68
2023/09/13 03:29:41;;;;;;;0.00;0.00;;;;;;;28.33;58.29;101320.41;5072772;28;20074;-68
2023/09/13 03:32:09;;;;;;;0.00;0.00;;;;;;;28.53;57.91;101318.84;5074004;28;20027;-68
2023/09/13 03:34:35;;;;;;;0.00;0.00;;;;;;;28.68;57.28;101317.50;5073806;28;20087;-69
2023/09/13 03:37:01;;;;;;;0.00;0.00;;;;;;;28.65;56.62;101321.72;5073443;28;20032;-69
2023/09/13 03:39:28;;;;;;;0.00;0.00;;;;;;;28.63;57.81;101322.06;5073468;28;20040;-68
2023/09/13 03:41:54;;;;;;;0.00;0.00;;;;;;;28.56;58.04;101323.72;5073515;28;20112;-68
2023/09/13 03:44:20;;;;;;;0.00;0.00;;;;;;;28.72;56.56;101323.97;5073810;28;20024;-69
2023/09/13 03:46:45;;;;;;;0.00;0.00;;;;;;;28.68;56.81;101320.25;5073668;28;20078;-68
2023/09/13 03:49:11;;;;;;;0.00;0.00;;;;;;;28.68;57.14;101315.50;5073520;28;20043;-69
2023/09/13 03:51:36;;;;;;;0.00;0.00;;;;;;;28.78;56.45;101317.88;5073118;28;20508;-68
2023/09/13 03:54:01;;;;;;;0.00;0.00;;;;;;;28.72;57.18;101315.69;5073143;28;20035;-69
2023/09/13 03:56:27;;;;;;;0.00;0.00;;;;;;;28.90;55.86;101314.38;5073102;28;20028;-67
2023/09/13 03:58:53;;;;;;;0.00;0.00;;;;;;;28.84;56.17;101308.25;5073595;28;20393;-68
2023/09/13 04:01:19;;;;;;;0.00;0.00;;;;;;;28.68;56.37;101304.44;5076165;28;20052;-68
2023/09/13 04:03:44;;;;;;;0.00;0.00;;;;;;;28.87;56.24;101295.72;5052915;28;20047;-67
2023/09/13 04:06:10;;;;;;;0.00;0.00;;;;;;;28.63;56.94;101305.47;5055852;28;20037;-69
2023/09/13 04:08:35;;;;;;;0.00;0.00;;;;;;;28.62;57.02;101303.03;5066947;28;20056;-68
2023/09/13 04:11:01;;;;;;;0.00;0.00;;;;;;;28.43;58.27;101303.44;5057647;28;20078;-68
2023/09/13 04:13:27;;;;;;;0.00;0.00;;;;;;;28.20;57.92;101295.75;5071698;28;20375;-69
2023/09/13 04:15:52;;;;;;;0.00;0.00;;;;;;;28.40;57.73;101297.78;5071848;28;20032;-68
2023/09/13 04:18:18;;;;;;;0.00;0.00;;;;;;;28.31;57.61;101291.44;5072021;28;20033;-68
2023/09/13 04:20:46;;;;;;;0.00;0.00;;;;;;;28.40;57.17;101293.03;5072097;28;20515;-69
2023/09/13 04:23:12;;;;;;;0.00;0.00;;;;;;;28.49;56.70;101291.03;5071955;28;20024;-68
2023/09/13 04:25:37;;;;;;;0.00;0.00;;;;;;;28.66;56.06;101284.59;5053588;28;20032;-68
2023/09/13 04:28:03;;;;;;;0.00;0.00;;;;;;;28.68;56.43;101287.84;5071605;28;20063;-70
2023/09/13 04:30:28;;;;;;;0.00;0.00;;;;;;;28.47;57.49;101292.50;5071662;28;20534;-68
2023/09/13 04:32:54;;;;;;;0.00;0.00;;;;;;;28.23;58.57;101292.31;5071530;28;20488;-68
2023/09/13 04:35:19;;;;;;;0.00;0.00;;;;;;;28.72;56.11;101291.56;5072151;28;20025;-69
2023/09/13 04:37:44;;;;;;;0.00;0.00;;;;;;;28.55;57.67;101284.22;5071398;28;20044;-69
2023/09/13 04:40:10;;;;;;;0.00;0.00;;;;;;;28.67;56.37;101286.25;5069428;28;20496;-69
2023/09/13 04:42:45;;;;;;;0.00;0.00;;;;;;;28.52;58.09;101281.28;5071665;28;20036;-69
2023/09/13 04:45:11;;;;;;;0.00;0.00;;;;;;;28.85;56.46;101290.50;5071073;28;20043;-69
2023/09/13 04:47:38;;;;;;;0.00;0.00;;;;;;;28.63;57.16;101280.56;5071563;28;20016;-68
2023/09/13 04:50:05;;;;;;;0.00;0.00;;;;;;;28.64;56.93;101281.38;5072078;28;20104;-68
2023/09/13 04:52:30;;;;;;;0.00;0.00;;;;;;;28.67;56.27;101280.72;5071731;28;20033;-69
2023/09/13 04:54:55;;;;;;;0.00;0.00;;;;;;;28.45;57.81;101284.56;5071621;28;20027;-68
2023/09/13 04:57:21;;;;;;;0.00;0.00;;;;;;;28.65;57.25;101283.00;5073653;28;20527;-69
2023/09/13 04:59:51;;;;;;;0.00;0.00;;;;;;;28.40;58.60;101289.47;5071433;28;20034;-69
2023/09/13 05:02:16;;;;;;;0.00;0.00;;;;;;;28.40;57.94;101295.00;5072002;28;20047;-69
2023/09/13 05:04:42;;;;;;;0.00;0.00;;;;;;;28.68;56.82;101290.63;5053174;28;20043;-70
2023/09/13 05:07:08;;;;;;;0.00;0.00;;;;;;;28.34;58.49;101288.81;5070932;28;20124;-68
2023/09/13 05:09:36;;;;;;;0.00;0.00;;;;;;;28.53;57.87;101289.22;5071463;28;20041;-69
2023/09/13 05:12:02;;;;;;;0.00;0.00;;;;;;;28.49;57.70;101293.00;5071476;28;20024;-69
2023/09/13 05:14:27;;;;;;;0.00;0.00;;;;;;;28.35;58.70;101290.47;5071682;28;20119;-68
2023/09/13 05:16:53;;;;;;;0.00;0.00;;;;;;;28.60;57.68;101286.75;5072339;28;20028;-69
2023/09/13 05:19:18;;;;;;;0.00;0.00;;;;;;;27.78;60.55;101290.00;5071544;28;20048;-68
2023/09/13 05:21:44;;;;;;;0.00;0.00;;;;;;;27.48;61.83;101299.31;5070971;28;20045;-70
2023/09/13 05:24:10;;;;;;;0.00;0.00;;;;;;;27.72;60.91;101296.03;5070543;28;20028;-68
2023/09/13 05:26:35;;;;;;;0.00;0.00;;;;;;;27.97;60.82;101291.63;5070859;28;20111;-69
2023/09/13 05:29:02;;;;;;;0.00;0.00;;;;;;;27.77;60.71;101293.13;5071468;28;20043;-69
2023/09/13 05:31:27;;;;;;;0.00;0.00;;;;;;;26.58;66.16;101280.91;5070351;28;20123;-70
2023/09/13 05:33:53;;;;;;;0.00;0.00;;;;;;;27.04;64.88;101291.38;5071266;28;20182;-68
2023/09/13 05:36:18;;;;;;;0.00;0.00;;;;;;;26.39;66.15;101294.16;5070289;28;20068;-69
2023/09/13 05:38:44;;;;;;;0.00;0.00;;;;;;;25.75;69.86;101295.63;5070325;28;20098;-68
2023/09/13 05:41:10;;;;;;;0.00;0.00;;;;;;;25.74;69.80;101305.03;5071571;28;20025;-68
2023/09/13 05:43:40;;;;;;;0.00;0.00;;;;;;;24.90;71.91;101264.69;5070776;28;20032;-67
2023/09/13 05:46:06;;;;;;;0.00;0.00;;;;;;;22.55;78.61;101317.91;5071030;28;20032;-69
2023/09/13 05:48:33;;;;;;;0.00;0.00;;;;;;;22.38;78.96;101359.47;5069737;28;20518;-70
2023/09/13 05:50:58;;;;;;;0.10;0.10;;;;;;;22.92;76.88;101378.28;5069585;28;20038;-70
2023/09/13 05:53:24;;;;;;;0.10;0.10;;;;;;;22.03;79.55;101376.28;5073237;28;20036;-70
2023/09/13 05:55:50;;;;;;;0.13;0.13;;;;;;;21.09;84.61;101400.44;5086550;28;20051;-70
2023/09/13 05:58:17;;;;;;;0.10;0.10;;;;;;;20.57;83.81;101409.91;5070354;28;20056;-70
2023/09/13 06:00:46;;;;;;;0.10;0.10;;;;;;;21.30;80.86;101411.00;5070818;28;20111;-69
2023/09/13 06:03:12;;;;;;;0.10;0.10;;;;;;;20.61;81.07;101434.75;5070693;28;20033;-69
2023/09/13 06:05:37;;;;;;;0.20;0.20;;;;;;;20.86;79.79;101454.59;5070691;28;20047;-69
2023/09/13 06:08:03;;;;;;;0.10;0.10;;;;;;;20.93;80.15;101470.72;5070964;28;20110;-69
2023/09/13 06:10:29;;;;;;;0.20;0.20;;;;;;;20.51;80.16;101476.53;5070708;28;20477;-68
2023/09/13 06:12:54;;;;;;;0.10;0.10;;;;;;;20.94;78.75;101486.81;5070521;28;20041;-69
2023/09/13 06:15:19;;;;;;;0.20;0.20;;;;;;;20.78;79.03;101495.31;5051894;28;20043;-69
2023/09/13 06:17:45;;;;;;;0.10;0.10;;;;;;;20.00;82.04;101505.75;5070549;28;20033;-70
2023/09/13 06:20:11;;;;;;;0.10;0.10;;;;;;;21.29;76.89;101502.31;5071169;28;20032;-70
2023/09/13 06:22:36;;;;;;;0.10;0.10;;;;;;;20.58;79.06;101509.03;5070419;28;20368;-70
2023/09/13 06:25:03;;;;;;;0.20;0.20;;;;;;;21.95;74.93;101507.44;5070233;28;20492;-70
2023/09/13 06:27:28;;;;;;;0.10;0.10;;;;;;;22.47;72.64;101504.81;5070458;28;20040;-70
2023/09/13 06:29:53;;;;;;;0.10;0.10;;;;;;;20.93;78.26;101528.09;5070605;28;20028;-69
2023/09/13 06:32:19;;;;;;;0.10;0.10;;;;;;;21.36;77.28;101530.19;5070904;28;20114;-70
2023/09/13 06:34:44;;;;;;;0.10;0.10;;;;;;;21.33;77.43;101536.19;5070275;28;20048;-70
2023/09/13 06:37:10;;;;;;;0.20;0.20;;;;;;;21.93;74.48;101547.97;5070345;28;20544;-69
2023/09/13 06:39:35;;;;;;;0.10;0.10;;;;;;;20.64;78.98;101543.41;5070017;28;20759;-71
2023/09/13 06:42:04;;;;;;;0.10;0.10;;;;;;;21.31;78.52;101548.50;5070307;28;20039;-71
2023/09/13 06:44:29;;;;;;;0.10;0.10;;;;;;;19.81;82.21;101553.69;5070449;28;20021;-69
2023/09/13 06:46:55;;;;;;;0.10;0.10;;;;;;;20.57;79.04;101562.84;5071078;28;20032;-70
2023/09/13 06:49:20;;;;;;;0.10;0.10;;;;;;;21.53;75.89;101571.66;5076620;28;20055;-70
2023/09/13 06:51:45;;;;;;;0.20;0.20;;;;;;;21.30;76.83;101575.03;5090713;28;20043;-70
2023/09/13 06:54:11;;;;;;;0.10;0.10;;;;;;;21.48;76.48;101588.06;5090415;28;20028;-71
2023/09/13 06:56:36;;;;;;;0.10;0.10;;;;;;;21.69;74.42;101600.59;5090464;28;20388;-70
2023/09/13 06:59:03;;;;;;;0.10;0.10;;;;;;;21.04;77.85;101597.22;5060023;28;20039;-71
2023/09/13 07:01:28;;;;;;;0.20;0.20;;;;;;;21.70;75.25;101604.13;5070273;28;20032;-70
2023/09/13 07:03:53;;;;;;;0.10;0.10;;;;;;;21.91;73.81;101602.16;5069637;28;20033;-69
2023/09/13 07:06:19;;;;;;;0.13;0.13;;;;;;;21.39;75.41;101613.56;5070520;28;20028;-69
2023/09/13 07:08:44;;;;;;;0.10;0.10;;;;;;;21.85;72.01;101631.47;5070021;28;20044;-69
2023/09/13 07:11:10;;;;;;;0.10;0.10;;;;;;;21.75;72.49;101624.09;5070400;28;20036;-71
2023/09/13 07:13:35;;;;;;;0.20;0.20;;;;;;;21.24;74.06;101613.59;5070148;28;20029;-70
2023/09/13 07:16:00;;;;;;;0.20;0.20;;;;;;;21.14;74.49;101632.75;5069882;28;20024;-71
2023/09/13 07:18:26;;;;;;;0.10;0.10;;;;;;;22.14;70.18;101648.84;5070012;28;20111;-71
2023/09/13 07:20:51;;;;;;;0.20;0.20;;;;;;;21.93;70.77;101651.97;5069910;28;20029;-69
2023/09/13 07:23:17;;;;;;;0.20;0.20;;;;;;;21.28;73.31;101666.63;5070492;28;20589;-71
2023/09/13 07:25:42;;;;;;;0.10;0.10;;;;;;;20.76;75.10;101675.09;5069653;28;20024;-69
2023/09/13 07:28:08;;;;;;;0.15;0.15;;;;;;;21.86;71.91;101681.56;5069928;28;20048;-70
2023/09/13 07:30:33;;;;;;;0.10;0.10;;;;;;;22.66;68.37;101683.88;5069800;28;20055;-70
2023/09/13 07:33:00;;;;;;;0.10;0.10;;;;;;;21.95;70.51;101685.34;5069948;28;20040;-71
2023/09/13 07:35:26;;;;;;;0.10;0.10;;;;;;;20.97;74.51;101682.22;5069851;28;20020;-70
2023/09/13 07:37:51;;;;;;;0.10;0.10;;;;;;;21.97;71.11;101681.25;5070253;28;20020;-69
2023/09/13 07:40:17;;;;;;;0.10;0.10;;;;;;;22.43;68.96;101690.00;5069618;28;20144;-70
2023/09/13 07:42:42;;;;;;;0.10;0.10;;;;;;;21.61;72.20;101691.44;5069609;28;20123;-69
2023/09/13 07:45:08;;;;;;;0.10;0.10;;;;;;;22.13;70.20;101676.50;5069578;28;20512;-69
2023/09/13 07:47:33;;;;;;;0.20;0.20;;;;;;;23.24;66.27;101668.28;5069665;28;20108;-69
2023/09/13 07:49:59;;;;;;;0.10;0.10;;;;;;;23.59;64.06;101664.41;5070101;28;20028;-69
2023/09/13 07:52:25;;;;;;;0.20;0.20;;;;;;;23.99;63.64;101652.91;5069669;28;20470;-69
2023/09/13 07:54:51;;;;;;;0.20;0.20;;;;;;;24.06;63.33;101656.97;5060302;28;20066;-70
2023/09/13 07:57:17;;;;;;;0.10;0.10;;;;;;;23.24;65.35;101663.63;5049245;28;20028;-69
2023/09/13 07:59:43;;;;;;;0.20;0.20;;;;;;;23.59;63.39;101670.69;5049169;28;20037;-69
2023/09/13 08:02:08;;;;;;;0.10;0.10;;;;;;;23.93;62.98;101670.56;5049896;28;20025;-70
2023/09/13 08:04:33;;;;;;;0.22;0.22;;;;;;;24.36;62.42;101672.22;5049616;28;20094;-70
2023/09/13 08:06:59;;;;;;;0.10;0.10;;;;;;;23.18;63.93;101673.03;5049628;28;20372;-70
2023/09/13 08:09:25;;;;;;;0.10;0.10;;;;;;;23.11;63.61;101685.44;5049344;28;20045;-70
2023/09/13 08:11:52;;;;;;;0.10;0.10;;;;;;;23.16;65.13;101691.69;5049466;28;20106;-70
2023/09/13 08:14:18;;;;;;;0.10;0.10;;;;;;;23.79;60.95;101695.19;5050138;28;20032;-70
2023/09/13 08:16:43;;;;;;;0.10;0.10;;;;;;;23.96;60.34;101695.50;5071522;28;20047;-70
2023/09/13 08:19:08;;;;;;;0.10;0.10;;;;;;;23.57;61.08;101694.06;5073272;28;20033;-70
2023/09/13 08:21:34;;;;;;;0.10;0.10;;;;;;;23.52;62.65;101703.16;5073594;28;20460;-70
2023/09/13 08:23:59;;;;;;;0.13;0.13;;;;;;;24.16;61.10;101695.28;5072847;28;20025;-70
2023/09/13 08:26:25;;;;;;;0.10;0.10;;;;;;;25.31;58.72;101693.78;5054512;28;20037;-71
2023/09/13 08:28:50;;;;;;;0.10;0.10;;;;;;;24.98;59.60;101684.75;5073475;28;20033;-71
2023/09/13 08:31:17;;;;;;;0.10;0.10;;;;;;;25.27;59.77;101686.16;5073284;28;20036;-70
2023/09/13 08:33:43;;;;;;;0.10;0.10;;;;;;;24.78;57.92;101699.66;5072958;28;20032;-71
2023/09/13 08:36:08;;;;;;;0.10;0.10;;;;;;;24.93;58.84;101699.41;5072574;28;20025;-70
2023/09/13 08:38:34;;;;;;;0.10;0.10;;;;;;;25.88;56.00;101707.03;5072612;28;20036;-70
2023/09/13 08:40:59;;;;;;;0.10;0.10;;;;;;;24.84;58.15;101719.63;5072790;28;20024;-70
2023/09/13 08:43:25;;;;;;;0.10;0.10;;;;;;;24.83;56.49;101727.06;5091033;28;20036;-71
2023/09/13 08:45:51;;;;;;;0.10;0.10;;;;;;;24.54;58.50;101722.78;5072312;28;20325;-70
2023/09/13 08:48:18;;;;;;;0.10;0.10;;;;;;;25.23;56.61;101737.41;5072611;28;20028;-72
2023/09/13 08:50:45;;;;;;;0.05;0.05;;;;;;;24.34;60.37;101748.63;5072236;28;20039;-71
2023/09/13 08:53:12;;;;;;;0.10;0.10;;;;;;;23.94;61.60;101763.63;5072791;28;20426;-70
2023/09/13 08:55:38;;;;;;;0.13;0.13;;;;;;;25.07;57.95;101773.72;5072342;28;20167;-71
2023/09/13 08:58:04;;;;;;;0.00;0.00;;;;;;;24.79;57.47;101775.50;5072235;28;20484;-70
2023/09/13 09:00:39;;;;;;;0.10;0.10;;;;;;;23.72;61.22;101789.97;5072531;28;20032;-70
2023/09/13 09:03:07;;;;;;;0.10;0.10;;;;;;;23.68;61.80;101806.19;5072438;28;20025;-71
2023/09/13 09:05:34;;;;;;;0.10;0.10;;;;;;;23.28;62.96;101809.25;5072511;28;20029;-71
2023/09/13 09:08:02;;;;;;;0.00;0.00;;;;;;;23.14;63.99;101827.44;5072377;28;20068;-71
2023/09/13 09:10:28;;;;;;;0.10;0.10;;;;;;;24.15;63.57;101825.50;5072061;28;20373;-71
2023/09/13 09:12:57;;;;;;;0.03;0.03;;;;;;;24.40;59.72;101830.72;5071765;28;20029;-71
2023/09/13 09:15:24;;;;;;;0.00;0.00;;;;;;;24.24;60.93;101836.66;5071828;28;20493;-70
2023/09/13 09:17:52;;;;;;;0.00;0.00;;;;;;;24.27;61.00;101842.38;5072005;28;20028;-71
2023/09/13 09:20:19;;;;;;;0.10;0.10;;;;;;;25.02;58.77;101846.13;5072245;28;20037;-70
2023/09/13 09:22:45;;;;;;;0.10;0.10;;;;;;;22.89;65.44;101849.53;5071858;28;20029;-70
2023/09/13 09:25:11;;;;;;;0.10;0.10;;;;;;;24.50;59.01;101856.41;5071573;28;20039;-70
2023/09/13 09:27:38;;;;;;;0.10;0.10;;;;;;;24.38;60.04;101854.09;5070974;28;20050;-70
2023/09/13 09:30:06;;;;;;;0.08;0.08;;;;;;;24.94;59.63;101854.22;5071748;28;20044;-70
2023/09/13 09:32:35;;;;;;;0.10;0.10;;;;;;;23.96;61.40;101856.72;5071497;28;20036;-71
2023/09/13 09:35:01;;;;;;;0.00;0.00;;;;;;;23.65;62.36;101852.59;5071775;28;20107;-72
2023/09/13 09:37:31;;;;;;;0.00;0.00;;;;;;;24.30;60.09;101863.78;5071873;28;20039;-71
2023/09/13 09:39:56;;;;;;;0.00;0.00;;;;;;;23.08;63.19;101869.72;5091632;28;20068;-70
2023/09/13 09:42:22;;;;;;;0.00;0.00;;;;;;;23.50;62.08;101875.50;5091444;28;20039;-72
2023/09/13 09:44:48;;;;;;;0.10;0.10;;;;;;;24.15;59.15;101877.72;5079428;28;20033;-75
2023/09/13 09:47:14;;;;;;;0.10;0.10;;;;;;;24.56;58.22;101880.81;5071743;28;20116;-71
2023/09/13 09:49:41;;;;;;;0.10;0.10;;;;;;;24.18;60.33;101884.53;5071448;28;20047;-70
2023/09/13 09:52:09;;;;;;;0.10;0.10;;;;;;;24.85;57.21;101891.75;5070875;28;20032;-68
2023/09/13 09:54:36;;;;;;;0.00;0.00;;;;;;;24.05;59.61;101896.19;5071484;28;20040;-73
2023/09/13 09:57:02;;;;;;;0.03;0.03;;;;;;;24.36;58.16;101890.09;5070817;28;20101;-70
2023/09/13 09:59:28;;;;;;;0.10;0.10;;;;;;;24.55;58.07;101898.41;5070990;28;20040;-68
2023/09/13 10:01:58;;;;;;;0.00;0.00;;;;;;;24.49;58.92;101899.56;5071174;28;20016;-70
2023/09/13 10:04:23;;;;;;;0.10;0.10;;;;;;;24.38;57.48;101898.06;5070970;28;20032;-71
2023/09/13 10:07:03;;;;;;;0.10;0.10;;;;;;;23.39;60.05;101896.69;5070765;28;20706;-69
2023/09/13 10:09:44;;;;;;;0.03;0.03;;;;;;;24.65;57.75;101905.72;5070911;28;20043;-71
2023/09/13 10:12:11;;;;;;;0.10;0.10;;;;;;;24.08;58.72;101909.34;5070555;28;20033;-71
2023/09/13 10:14:38;;;;;;;0.00;0.00;;;;;;;24.53;57.10;101914.34;5070720;28;20035;-70
2023/09/13 10:17:04;;;;;;;0.00;0.00;;;;;;;25.14;54.76;101898.75;5071394;28;20103;-70
2023/09/13 10:19:31;;;;;;;0.00;0.00;;;;;;;24.27;56.75;101904.78;5070287;28;20349;-70
2023/09/13 10:21:57;;;;;;;0.00;0.00;;;;;;;25.78;53.64;101898.09;5070727;28;20067;-69
2023/09/13 10:24:25;;;;;;;0.08;0.08;;;;;;;26.05;52.27;101891.81;5052360;28;20052;-70
2023/09/13 10:26:54;;;;;;;0.00;0.00;;;;;;;25.19;55.46;101890.44;5070562;28;20037;-69
2023/09/13 10:29:35;;;;;;;0.00;0.00;;;;;;;26.66;50.68;101897.84;5071111;28;20064;-70
2023/09/13 10:32:07;;;;;;;0.05;0.05;;;;;;;25.90;52.67;101901.19;5070744;28;20041;-71
2023/09/13 10:34:41;;;;;;;0.00;0.00;;;;;;;26.56;49.68;101897.22;5058927;28;20485;-71
2023/09/13 10:37:17;;;;;;;0.00;0.00;;;;;;;27.03;50.34;101907.03;5070161;28;20032;-70
2023/09/13 10:39:51;;;;;;;0.10;0.10;;;;;;;26.62;49.81;101910.59;5069753;28;20044;-70
2023/09/13 10:42:18;;;;;;;0.10;0.10;;;;;;;26.01;51.36;101913.66;5070410;28;20025;-69
2023/09/13 10:44:45;;;;;;;0.00;0.00;;;;;;;25.34;53.18;101919.66;5070460;28;20036;-69
2023/09/13 10:47:11;;;;;;;0.00;0.00;;;;;;;26.18;50.13;101920.56;5070781;28;20029;-70
2023/09/13 10:49:38;;;;;;;0.00;0.00;;;;;;;26.13;50.85;101923.41;5070427;28;20040;-70
2023/09/13 10:52:05;;;;;;;0.00;0.00;;;;;;;24.91;54.79;101932.66;5070303;28;20048;-69
2023/09/13 10:54:31;;;;;;;0.00;0.00;;;;;;;24.52;57.96;101931.97;5070397;28;20060;-69
2023/09/13 10:56:57;;;;;;;0.00;0.00;;;;;;;24.16;59.63;101942.50;5070185;28;20055;-70
2023/09/13 10:59:24;;;;;;;0.10;0.10;;;;;;;23.89;58.18;101952.31;5070082;28;20036;-68
2023/09/13 11:01:50;;;;;;;0.00;0.00;;;;;;;23.94;59.54;101946.81;5052626;28;20066;-70
2023/09/13 11:04:18;;;;;;;0.03;0.03;;;;;;;24.26;58.51;101969.88;5069163;28;20113;-70
2023/09/13 11:06:44;;;;;;;0.10;0.10;;;;;;;23.02;60.61;101958.59;5069334;28;20032;-71
2023/09/13 11:09:17;;;;;;;0.00;0.00;;;;;;;24.71;58.71;101957.59;5068934;28;20115;-70
2023/09/13 11:11:51;;;;;;;0.10;0.10;;;;;;;25.62;53.44;101953.69;5069300;28;20090;-70
2023/09/13 11:14:23;;;;;;;0.00;0.00;;;;;;;23.91;59.96;101967.41;5052449;28;20040;-71
2023/09/13 11:16:48;;;;;;;0.10;0.10;;;;;;;24.40;58.37;101979.09;5068780;28;20041;-70
2023/09/13 11:19:17;;;;;;;0.00;0.00;;;;;;;24.67;56.88;101975.00;5068970;28;20374;-70
2023/09/13 11:21:51;;;;;;;0.00;0.00;;;;;;;25.38;55.65;101994.19;5068897;28;20067;-70